createdAt,value
2018-09-15T00:00:58.079Z,15.00
2018-09-15T00:03:33.559Z,15.00
2018-09-15T00:06:08.784Z,15.00
2018-09-15T00:08:44.342Z,14.90
2018-09-15T00:11:19.697Z,14.90
2018-09-15T00:13:55.357Z,14.90
2018-09-15T00:16:30.611Z,14.80
2018-09-15T00:19:06.194Z,14.80
2018-09-15T00:21:41.634Z,14.70
2018-09-15T00:24:17.042Z,14.60
2018-09-15T00:26:52.458Z,14.60
2018-09-15T00:29:28.025Z,14.60
2018-09-15T00:32:03.434Z,14.50
2018-09-15T00:34:38.886Z,14.40
2018-09-15T00:37:14.123Z,14.30
2018-09-15T00:39:49.796Z,14.30
2018-09-15T00:42:25.290Z,14.10
2018-09-15T00:45:07.345Z,14.00
2018-09-15T00:47:42.526Z,14.00
2018-09-15T00:50:17.971Z,14.00
2018-09-15T00:52:53.429Z,13.90
2018-09-15T00:55:28.840Z,13.90
2018-09-15T00:58:04.267Z,13.90
2018-09-15T01:00:39.822Z,13.90
2018-09-15T01:03:15.259Z,13.90
2018-09-15T01:05:50.986Z,13.90
2018-09-15T01:08:26.408Z,13.80
2018-09-15T01:11:01.692Z,13.80
2018-09-15T01:13:37.317Z,13.80
2018-09-15T01:16:12.788Z,13.60
2018-09-15T01:18:47.946Z,13.60
2018-09-15T01:21:23.465Z,13.50
2018-09-15T01:23:58.781Z,13.50
2018-09-15T01:26:34.175Z,13.50
2018-09-15T01:29:09.348Z,13.40
2018-09-15T01:31:44.865Z,13.50
2018-09-15T01:34:20.337Z,13.60
2018-09-15T01:36:55.786Z,13.60
2018-09-15T01:39:31.026Z,13.70
2018-09-15T01:42:06.506Z,13.60
2018-09-15T01:44:41.981Z,13.60
2018-09-15T01:47:17.341Z,13.50
2018-09-15T01:49:52.694Z,13.40
2018-09-15T01:52:28.045Z,13.40
2018-09-15T01:55:03.361Z,13.40
2018-09-15T01:57:38.989Z,13.40
2018-09-15T02:00:14.805Z,13.40
2018-09-15T02:02:50.445Z,13.50
2018-09-15T02:05:25.643Z,13.50
2018-09-15T02:08:01.294Z,13.50
2018-09-15T02:10:36.520Z,13.50
2018-09-15T02:13:12.013Z,13.60
2018-09-15T02:15:47.340Z,13.60
2018-09-15T02:18:22.772Z,13.60
2018-09-15T02:20:58.013Z,13.60
2018-09-15T02:23:33.446Z,13.60
2018-09-15T02:26:09.284Z,13.60
2018-09-15T02:28:44.706Z,13.70
2018-09-15T02:31:20.399Z,13.70
2018-09-15T02:33:55.828Z,13.80
2018-09-15T02:37:30.011Z,13.70
2018-09-15T02:40:05.529Z,13.80
2018-09-15T02:42:41.009Z,13.80
2018-09-15T02:45:16.445Z,13.80
2018-09-15T02:47:51.929Z,13.80
2018-09-15T02:50:27.470Z,13.80
2018-09-15T02:53:02.911Z,13.80
2018-09-15T02:55:38.405Z,13.80
2018-09-15T02:58:13.872Z,13.80
2018-09-15T03:00:49.370Z,13.80
2018-09-15T03:03:24.860Z,13.60
2018-09-15T03:06:00.345Z,13.60
2018-09-15T03:08:35.674Z,13.60
2018-09-15T03:11:11.093Z,13.60
2018-09-15T03:13:46.606Z,13.70
2018-09-15T03:16:22.152Z,13.70
2018-09-15T03:18:57.589Z,13.70
2018-09-15T03:21:33.112Z,13.70
2018-09-15T03:24:08.645Z,13.70
2018-09-15T03:26:44.052Z,13.70
2018-09-15T03:29:19.554Z,13.70
2018-09-15T03:31:54.939Z,13.60
2018-09-15T03:34:30.382Z,13.60
2018-09-15T03:37:05.761Z,13.50
2018-09-15T03:39:41.160Z,13.40
2018-09-15T03:42:16.534Z,13.40
2018-09-15T03:44:51.748Z,13.40
2018-09-15T03:47:27.193Z,13.20
2018-09-15T03:50:02.580Z,13.20
2018-09-15T03:52:37.937Z,13.10
2018-09-15T03:55:13.854Z,13.00
2018-09-15T03:57:49.254Z,12.90
2018-09-15T04:00:24.460Z,12.80
2018-09-15T04:02:59.892Z,12.80
2018-09-15T04:05:35.201Z,12.80
2018-09-15T04:08:10.638Z,12.80
2018-09-15T04:10:46.081Z,12.80
2018-09-15T04:13:21.639Z,12.90
2018-09-15T04:15:57.113Z,13.00
2018-09-15T04:18:32.633Z,13.00
2018-09-15T04:21:07.858Z,13.00
2018-09-15T04:23:43.268Z,12.90
2018-09-15T04:26:18.544Z,12.80
2018-09-15T04:28:54.004Z,12.70
2018-09-15T04:31:29.331Z,12.70
2018-09-15T04:34:04.745Z,12.70
2018-09-15T04:36:40.212Z,12.70
2018-09-15T04:39:15.762Z,12.60
2018-09-15T04:41:51.251Z,12.60
2018-09-15T04:44:26.619Z,12.60
2018-09-15T04:47:02.017Z,12.60
2018-09-15T04:49:37.424Z,12.60
2018-09-15T04:52:12.825Z,12.60
2018-09-15T04:54:48.284Z,12.70
2018-09-15T04:57:24.060Z,12.80
2018-09-15T04:59:59.486Z,12.80
2018-09-15T05:02:34.668Z,12.90
2018-09-15T05:05:10.182Z,12.90
2018-09-15T05:07:45.653Z,13.00
2018-09-15T05:10:21.245Z,13.00
2018-09-15T05:12:56.970Z,13.10
2018-09-15T05:15:32.303Z,13.10
2018-09-15T05:18:07.757Z,13.10
2018-09-15T05:20:43.273Z,13.20
2018-09-15T05:23:18.829Z,13.20
2018-09-15T05:25:54.177Z,13.20
2018-09-15T05:28:29.378Z,13.20
2018-09-15T05:31:04.813Z,13.20
2018-09-15T05:33:40.196Z,13.20
2018-09-15T05:36:15.682Z,13.20
2018-09-15T05:38:51.139Z,13.20
2018-09-15T05:41:26.600Z,13.20
2018-09-15T05:44:01.901Z,13.10
2018-09-15T05:46:37.464Z,13.10
2018-09-15T05:49:12.756Z,13.20
2018-09-15T05:51:48.237Z,13.30
2018-09-15T05:54:23.413Z,13.40
2018-09-15T05:56:58.854Z,13.50
2018-09-15T05:59:34.296Z,13.50
2018-09-15T06:02:09.792Z,13.60
2018-09-15T06:04:45.277Z,13.60
2018-09-15T06:07:20.745Z,13.70
2018-09-15T06:09:56.248Z,13.90
2018-09-15T06:12:38.659Z,14.00
2018-09-15T06:15:14.007Z,14.10
2018-09-15T06:17:49.445Z,14.10
2018-09-15T06:20:24.750Z,14.20
2018-09-15T06:23:00.435Z,14.30
2018-09-15T06:25:35.900Z,14.60
2018-09-15T06:28:11.412Z,14.80
2018-09-15T06:30:46.819Z,15.10
2018-09-15T06:33:22.509Z,15.00
2018-09-15T06:35:57.833Z,15.00
2018-09-15T06:38:33.402Z,14.90
2018-09-15T06:41:08.688Z,14.80
2018-09-15T06:43:44.315Z,14.80
2018-09-15T06:46:19.718Z,14.80
2018-09-15T06:48:55.179Z,14.80
2018-09-15T06:51:30.689Z,15.00
2018-09-15T06:54:06.337Z,15.10
2018-09-15T06:56:42.092Z,15.20
2018-09-15T06:59:17.648Z,15.40
2018-09-15T07:01:52.889Z,15.60
2018-09-15T07:04:28.337Z,16.20
2018-09-15T07:07:03.621Z,16.50
2018-09-15T07:09:39.159Z,16.50
2018-09-15T07:12:14.514Z,17.40
2018-09-15T07:14:50.375Z,17.80
2018-09-15T07:17:25.809Z,18.00
2018-09-15T07:20:01.473Z,17.70
2018-09-15T07:22:36.860Z,17.60
2018-09-15T07:25:12.537Z,17.30
2018-09-15T07:27:47.844Z,17.20
2018-09-15T07:30:23.324Z,17.00
2018-09-15T07:32:58.609Z,16.80
2018-09-15T07:35:34.118Z,16.60
2018-09-15T07:38:09.612Z,16.50
2018-09-15T07:40:45.145Z,16.50
2018-09-15T07:43:20.678Z,16.20
2018-09-15T07:45:56.312Z,16.30
2018-09-15T07:48:31.660Z,16.30
2018-09-15T07:51:07.504Z,16.40
2018-09-15T07:53:42.832Z,16.40
2018-09-15T07:56:18.376Z,16.60
2018-09-15T07:58:54.000Z,16.70
2018-09-15T08:01:29.689Z,16.70
2018-09-15T08:04:04.909Z,16.80
2018-09-15T08:06:40.499Z,17.00
2018-09-15T08:09:15.722Z,17.30
2018-09-15T08:11:51.219Z,17.50
2018-09-15T08:14:26.781Z,17.60
2018-09-15T08:17:02.177Z,17.70
2018-09-15T08:19:37.526Z,17.70
2018-09-15T08:22:13.040Z,17.70
2018-09-15T08:24:48.504Z,17.70
2018-09-15T08:27:24.292Z,17.60
2018-09-15T08:29:59.706Z,17.80
2018-09-15T08:32:35.224Z,17.80
2018-09-15T08:35:10.601Z,17.90
2018-09-15T08:37:46.141Z,17.80
2018-09-15T08:40:22.070Z,17.70
2018-09-15T08:42:57.836Z,17.60
2018-09-15T08:45:33.880Z,17.40
2018-09-15T08:48:09.349Z,17.50
2018-09-15T08:50:44.696Z,17.70
2018-09-15T08:53:20.186Z,17.80
2018-09-15T08:55:55.496Z,17.90
2018-09-15T08:58:30.893Z,18.20
2018-09-15T09:01:06.281Z,18.30
2018-09-15T09:06:01.543Z,18.40
2018-09-15T09:08:37.068Z,18.60
2018-09-15T09:11:12.859Z,18.60
2018-09-15T09:13:48.349Z,18.40
2018-09-15T09:16:23.560Z,18.30
2018-09-15T09:18:59.138Z,18.40
2018-09-15T09:21:34.552Z,18.20
2018-09-15T09:24:10.118Z,18.10
2018-09-15T09:26:45.439Z,18.30
2018-09-15T09:29:21.823Z,18.40
2018-09-15T09:31:57.009Z,18.50
2018-09-15T09:34:32.385Z,18.70
2018-09-15T09:37:07.938Z,18.90
2018-09-15T09:39:43.339Z,19.20
2018-09-15T09:42:18.769Z,19.20
2018-09-15T09:44:54.289Z,19.20
2018-09-15T09:47:29.624Z,19.30
2018-09-15T09:50:05.065Z,19.40
2018-09-15T09:52:40.565Z,19.50
2018-09-15T09:55:15.970Z,19.50
2018-09-15T09:57:51.391Z,19.60
2018-09-15T10:00:32.129Z,19.50
2018-09-15T10:03:07.462Z,19.50
2018-09-15T10:05:42.840Z,19.50
2018-09-15T10:08:18.312Z,19.60
2018-09-15T10:10:53.855Z,19.60
2018-09-15T10:13:29.395Z,19.70
2018-09-15T10:16:04.917Z,19.70
2018-09-15T10:18:40.396Z,19.70
2018-09-15T10:21:15.988Z,19.80
2018-09-15T10:23:51.316Z,19.80
2018-09-15T10:26:26.680Z,19.80
2018-09-15T10:29:01.962Z,19.60
2018-09-15T10:31:37.622Z,19.70
2018-09-15T10:34:13.130Z,19.90
2018-09-15T10:36:48.538Z,20.20
2018-09-15T10:39:23.863Z,20.50
2018-09-15T10:41:59.324Z,20.70
2018-09-15T10:44:34.693Z,20.60
2018-09-15T10:47:10.393Z,20.70
2018-09-15T10:49:45.937Z,20.70
2018-09-15T10:52:21.545Z,20.70
2018-09-15T10:54:56.764Z,20.60
2018-09-15T10:57:32.145Z,20.90
2018-09-15T11:00:07.624Z,21.20
2018-09-15T11:02:43.176Z,21.20
2018-09-15T11:05:18.539Z,21.30
2018-09-15T11:07:53.969Z,21.00
2018-09-15T11:10:29.244Z,21.00
2018-09-15T11:13:05.189Z,21.00
2018-09-15T11:15:40.585Z,20.50
2018-09-15T11:18:16.172Z,20.10
2018-09-15T11:20:51.901Z,19.80
2018-09-15T11:23:27.357Z,19.60
2018-09-15T11:26:02.684Z,19.80
2018-09-15T11:28:38.118Z,20.20
2018-09-15T11:31:13.521Z,20.30
2018-09-15T11:33:49.128Z,20.30
2018-09-15T11:36:24.602Z,20.70
2018-09-15T11:38:59.897Z,20.50
2018-09-15T11:41:35.269Z,20.10
2018-09-15T11:44:10.676Z,19.50
2018-09-15T11:46:45.972Z,19.10
2018-09-15T11:49:21.569Z,18.60
2018-09-15T11:51:56.908Z,18.00
2018-09-15T11:54:32.351Z,17.70
2018-09-15T11:57:07.824Z,17.50
2018-09-15T11:59:43.169Z,17.40
2018-09-15T12:02:22.380Z,17.50
2018-09-15T12:04:58.565Z,17.40
2018-09-15T12:07:33.948Z,17.30
2018-09-15T12:10:16.062Z,17.10
2018-09-15T12:12:51.421Z,16.90
2018-09-15T12:15:27.013Z,16.80
2018-09-15T12:18:02.353Z,16.60
2018-09-15T12:20:37.843Z,16.40
2018-09-15T12:23:13.622Z,16.50
2018-09-15T12:25:48.937Z,16.50
2018-09-15T12:28:24.441Z,16.60
2018-09-15T12:31:00.081Z,16.90
2018-09-15T12:33:35.344Z,16.90
2018-09-15T12:36:10.865Z,17.00
2018-09-15T12:38:46.032Z,17.00
2018-09-15T12:41:21.503Z,16.80
2018-09-15T12:43:56.822Z,16.70
2018-09-15T12:46:32.245Z,16.60
2018-09-15T12:49:07.710Z,16.60
2018-09-15T12:51:43.149Z,16.70
2018-09-15T12:54:18.954Z,16.70
2018-09-15T12:56:54.549Z,16.80
2018-09-15T12:59:30.061Z,16.90
2018-09-15T13:02:05.417Z,17.10
2018-09-15T13:04:40.769Z,17.20
2018-09-15T13:07:16.317Z,17.20
2018-09-15T13:09:51.563Z,17.20
2018-09-15T13:12:27.056Z,17.10
2018-09-15T13:15:02.726Z,17.10
2018-09-15T13:17:38.134Z,17.00
2018-09-15T13:20:13.539Z,17.00
2018-09-15T13:22:49.185Z,17.10
2018-09-15T13:25:24.401Z,17.20
2018-09-15T13:28:00.074Z,17.40
2018-09-15T13:30:35.467Z,17.50
2018-09-15T13:33:11.183Z,17.70
2018-09-15T13:35:46.451Z,18.10
2018-09-15T13:38:22.161Z,18.30
2018-09-15T13:40:57.644Z,18.30
2018-09-15T13:43:33.262Z,18.40
2018-09-15T13:46:08.734Z,18.50
2018-09-15T13:48:44.071Z,18.60
2018-09-15T13:51:19.509Z,18.60
2018-09-15T13:53:55.043Z,18.90
2018-09-15T13:56:30.600Z,18.90
2018-09-15T13:59:06.345Z,18.90
2018-09-15T14:01:41.817Z,18.80
2018-09-15T14:04:17.434Z,18.90
2018-09-15T14:06:52.898Z,18.90
2018-09-15T14:09:28.529Z,19.00
2018-09-15T14:12:03.998Z,19.00
2018-09-15T14:14:39.622Z,19.10
2018-09-15T14:17:15.030Z,19.00
2018-09-15T14:19:50.407Z,18.90
2018-09-15T14:22:25.761Z,18.80
2018-09-15T14:25:01.151Z,18.80
2018-09-15T14:27:36.302Z,18.70
2018-09-15T14:30:11.705Z,18.60
2018-09-15T14:32:47.164Z,18.80
2018-09-15T14:35:22.576Z,18.80
2018-09-15T14:37:57.985Z,18.80
2018-09-15T14:40:33.608Z,18.80
2018-09-15T14:43:09.015Z,18.90
2018-09-15T14:45:44.342Z,19.10
2018-09-15T14:48:20.018Z,19.30
2018-09-15T14:50:55.332Z,19.40
2018-09-15T14:53:30.712Z,19.40
2018-09-15T14:56:06.345Z,19.60
2018-09-15T14:58:41.668Z,19.60
2018-09-15T15:01:17.233Z,19.80
2018-09-15T15:03:52.448Z,19.60
2018-09-15T15:06:28.067Z,19.40
2018-09-15T15:09:03.778Z,19.30
2018-09-15T15:11:39.432Z,19.20
2018-09-15T15:14:14.990Z,19.10
2018-09-15T15:16:50.649Z,19.10
2018-09-15T15:19:25.921Z,19.10
2018-09-15T15:22:01.415Z,19.00
2018-09-15T15:24:36.828Z,18.90
2018-09-15T15:27:12.289Z,18.90
2018-09-15T15:29:47.464Z,18.70
2018-09-15T15:32:22.885Z,18.70
2018-09-15T15:34:58.312Z,18.70
2018-09-15T15:37:33.725Z,18.70
2018-09-15T15:40:09.169Z,18.60
2018-09-15T15:42:44.866Z,18.50
2018-09-15T15:45:20.369Z,18.50
2018-09-15T15:47:55.917Z,18.50
2018-09-15T15:50:31.412Z,18.50
2018-09-15T15:53:06.966Z,18.50
2018-09-15T15:55:42.296Z,18.40
2018-09-15T15:58:17.859Z,18.50
2018-09-15T16:00:53.357Z,18.50
2018-09-15T16:03:28.735Z,18.40
2018-09-15T16:06:04.214Z,18.40
2018-09-15T16:08:39.732Z,18.30
2018-09-15T16:11:15.228Z,18.30
2018-09-15T16:13:51.926Z,18.20
2018-09-15T16:16:27.245Z,18.20
2018-09-15T16:19:02.885Z,18.00
2018-09-15T16:21:38.308Z,18.00
2018-09-15T16:24:13.737Z,18.00
2018-09-15T16:26:49.182Z,17.90
2018-09-15T16:29:24.597Z,17.90
2018-09-15T16:32:00.053Z,17.90
2018-09-15T16:34:36.409Z,17.80
2018-09-15T16:37:11.671Z,17.80
2018-09-15T16:39:47.318Z,17.70
2018-09-15T16:42:22.941Z,17.70
2018-09-15T16:44:58.486Z,17.60
2018-09-15T16:47:34.037Z,17.50
2018-09-15T16:50:10.670Z,17.40
2018-09-15T16:52:46.053Z,17.10
2018-09-15T16:55:21.644Z,16.80
2018-09-15T16:57:57.125Z,16.60
2018-09-15T17:00:32.576Z,16.40
2018-09-15T17:03:07.769Z,16.30
2018-09-15T17:05:43.152Z,16.20
2018-09-15T17:08:18.532Z,16.10
2018-09-15T17:10:54.084Z,16.00
2018-09-15T17:13:29.869Z,16.00
2018-09-15T17:16:05.295Z,15.90
2018-09-15T17:18:40.650Z,15.80
2018-09-15T17:21:16.082Z,15.80
2018-09-15T17:23:51.408Z,15.80
2018-09-15T17:26:27.980Z,15.70
2018-09-15T17:29:03.436Z,15.60
2018-09-15T17:31:38.833Z,15.50
2018-09-15T17:34:14.140Z,15.40
2018-09-15T17:36:49.963Z,15.40
2018-09-15T17:39:25.232Z,15.30
2018-09-15T17:42:00.775Z,15.30
2018-09-15T17:44:36.093Z,15.20
2018-09-15T17:47:11.440Z,15.10
2018-09-15T17:49:46.653Z,15.00
2018-09-15T17:52:22.337Z,14.90
2018-09-15T17:54:57.881Z,14.80
2018-09-15T17:57:33.246Z,14.70
2018-09-15T18:00:09.069Z,14.70
2018-09-15T18:02:44.533Z,14.60
2018-09-15T18:05:19.931Z,14.50
2018-09-15T18:07:55.480Z,14.50
2018-09-15T18:10:31.505Z,14.40
2018-09-15T18:13:07.232Z,14.40
2018-09-15T18:15:42.733Z,14.40
2018-09-15T18:18:18.249Z,14.30
2018-09-15T18:20:53.805Z,14.20
2018-09-15T18:23:29.448Z,14.20
2018-09-15T18:26:04.925Z,14.20
2018-09-15T18:28:40.376Z,14.10
2018-09-15T18:31:15.647Z,14.10
2018-09-15T18:33:51.181Z,14.00
2018-09-15T18:36:26.956Z,14.00
2018-09-15T18:39:02.470Z,14.00
2018-09-15T18:41:37.923Z,14.10
2018-09-15T18:44:13.382Z,14.20
2018-09-15T18:46:48.836Z,14.30
2018-09-15T18:49:24.365Z,14.30
2018-09-15T18:51:59.944Z,14.20
2018-09-15T18:54:35.288Z,14.20
2018-09-15T18:57:10.719Z,14.20
2018-09-15T18:59:46.827Z,14.20
2018-09-15T19:02:22.121Z,14.20
2018-09-15T19:04:57.705Z,14.20
2018-09-15T19:07:33.165Z,14.10
2018-09-15T19:10:08.501Z,14.00
2018-09-15T19:12:43.749Z,13.90
2018-09-15T19:15:19.489Z,13.90
2018-09-15T19:17:54.798Z,13.80
2018-09-15T19:20:30.961Z,13.90
2018-09-15T19:23:06.429Z,13.90
2018-09-15T19:25:41.932Z,13.80
2018-09-15T19:28:17.324Z,13.80
2018-09-15T19:30:53.034Z,13.80
2018-09-15T19:33:28.452Z,13.70
2018-09-15T19:36:04.957Z,13.70
2018-09-15T19:38:40.415Z,13.60
2018-09-15T19:41:16.133Z,13.60
2018-09-15T19:43:51.489Z,13.50
2018-09-15T19:46:26.957Z,13.60
2018-09-15T19:49:02.315Z,13.50
2018-09-15T19:51:37.702Z,13.40
2018-09-15T19:54:13.178Z,13.50
2018-09-15T19:56:48.850Z,13.40
2018-09-15T19:59:24.369Z,13.40
2018-09-15T20:01:59.766Z,13.40
2018-09-15T20:04:35.188Z,13.40
2018-09-15T20:07:10.835Z,13.30
2018-09-15T20:09:46.221Z,13.30
2018-09-15T20:12:21.597Z,13.30
2018-09-15T20:14:57.174Z,13.20
2018-09-15T20:17:31.333Z,13.20
2018-09-15T20:20:05.355Z,13.20
2018-09-15T20:22:40.935Z,13.10
2018-09-15T20:25:16.292Z,13.10
2018-09-15T20:27:51.913Z,13.10
2018-09-15T20:30:27.276Z,13.10
2018-09-15T20:33:03.015Z,13.00
2018-09-15T20:35:38.441Z,12.90
2018-09-15T20:38:13.925Z,12.90
2018-09-15T20:40:49.165Z,12.80
2018-09-15T20:43:24.684Z,12.90
2018-09-15T20:46:00.098Z,13.10
2018-09-15T20:48:35.573Z,13.30
2018-09-15T20:51:11.281Z,13.30
2018-09-15T20:53:46.865Z,13.40
2018-09-15T20:56:22.449Z,13.30
2018-09-15T20:58:58.254Z,13.30
2018-09-15T21:01:34.077Z,13.30
2018-09-15T21:04:09.772Z,13.30
2018-09-15T21:06:45.337Z,13.30
2018-09-15T21:09:21.005Z,13.20
2018-09-15T21:11:56.513Z,13.20
2018-09-15T21:14:32.286Z,13.20
2018-09-15T21:17:08.243Z,13.20
2018-09-15T21:19:43.890Z,13.30
2018-09-15T21:22:19.185Z,13.20
2018-09-15T21:24:54.684Z,13.20
2018-09-15T21:27:29.896Z,13.30
2018-09-15T21:30:05.681Z,13.40
2018-09-15T21:32:41.097Z,13.40
2018-09-15T21:35:16.650Z,13.30
2018-09-15T21:37:52.029Z,13.20
2018-09-15T21:40:27.455Z,13.00
2018-09-15T21:43:02.920Z,12.90
2018-09-15T21:45:38.411Z,12.80
2018-09-15T21:48:13.661Z,12.70
2018-09-15T21:50:49.141Z,12.70
2018-09-15T21:53:24.695Z,12.70
2018-09-15T21:56:02.039Z,12.60
2018-09-15T21:58:37.649Z,12.50
2018-09-15T22:01:13.165Z,12.50
2018-09-15T22:03:53.808Z,12.50
2018-09-15T22:06:30.186Z,12.50
2018-09-15T22:09:09.208Z,12.40
2018-09-15T22:11:44.976Z,12.40
2018-09-15T22:14:20.491Z,12.40
2018-09-15T22:16:56.040Z,12.50
2018-09-15T22:19:31.816Z,12.40
2018-09-15T22:22:07.460Z,12.50
2018-09-15T22:24:42.912Z,12.50
2018-09-15T22:27:18.432Z,12.50
2018-09-15T22:29:53.787Z,12.50
2018-09-15T22:32:29.204Z,12.50
2018-09-15T22:35:04.396Z,12.50
2018-09-15T22:37:39.941Z,12.50
2018-09-15T22:40:15.285Z,12.60
2018-09-15T22:42:50.764Z,12.50
2018-09-15T22:45:26.177Z,12.60
2018-09-15T22:48:01.545Z,12.60
2018-09-15T22:50:37.006Z,12.60
2018-09-15T22:53:12.448Z,12.60
2018-09-15T22:55:47.927Z,12.50
2018-09-15T22:58:23.388Z,12.50
2018-09-15T23:00:59.018Z,12.60
2018-09-15T23:03:34.533Z,12.50
2018-09-15T23:06:16.605Z,12.60
2018-09-15T23:08:52.149Z,12.60
2018-09-15T23:11:27.402Z,12.50
2018-09-15T23:14:02.936Z,12.40
2018-09-15T23:16:38.185Z,12.50
2018-09-15T23:19:13.718Z,12.40
2018-09-15T23:21:49.106Z,12.40
2018-09-15T23:24:24.697Z,12.40
2018-09-15T23:27:00.122Z,12.50
2018-09-15T23:29:35.532Z,12.50
2018-09-15T23:32:10.956Z,12.40
2018-09-15T23:34:46.593Z,12.40
2018-09-15T23:37:22.010Z,12.40
2018-09-15T23:39:57.653Z,12.40
2018-09-15T23:42:32.980Z,12.40
2018-09-15T23:45:08.394Z,12.40
2018-09-15T23:47:43.849Z,12.30
2018-09-15T23:50:19.218Z,12.30
2018-09-15T23:52:54.673Z,12.30
2018-09-15T23:55:30.451Z,12.30
2018-09-15T23:58:06.775Z,12.30
